createdAt,value
2024-04-18T00:02:30.166Z,100803.94
2024-04-18T00:05:34.903Z,100810.38
2024-04-18T00:08:39.576Z,100810.19
2024-04-18T00:11:43.058Z,100813.34
2024-04-18T00:14:52.407Z,100805.81
2024-04-18T00:17:54.943Z,100817.53
2024-04-18T00:20:59.681Z,100815.47
2024-04-18T00:24:01.684Z,100814.44
2024-04-18T00:27:06.468Z,100823.00
2024-04-18T00:30:11.727Z,100816.53
2024-04-18T00:33:16.405Z,100818.22
2024-04-18T00:36:18.493Z,100821.38
2024-04-18T00:39:23.307Z,100821.34
2024-04-18T00:42:27.932Z,100824.94
2024-04-18T00:45:32.674Z,100831.16
2024-04-18T00:48:38.009Z,100827.84
2024-04-18T00:51:42.941Z,100834.13
2024-04-18T00:54:44.899Z,100836.81
2024-04-18T00:57:50.339Z,100842.25
2024-04-18T01:00:58.012Z,100840.97
2024-04-18T01:04:03.573Z,100842.03
2024-04-18T01:07:05.985Z,100839.94
2024-04-18T01:10:11.371Z,100841.19
2024-04-18T01:13:13.512Z,100840.34
2024-04-18T01:16:22.300Z,100848.72
2024-04-18T01:19:24.646Z,100847.69
2024-04-18T01:22:31.123Z,100848.72
2024-04-18T01:25:33.519Z,100852.47
2024-04-18T01:28:41.022Z,100847.25
2024-04-18T01:31:43.139Z,100849.09
2024-04-18T01:34:48.128Z,100850.78
2024-04-18T01:37:50.372Z,100857.44
2024-04-18T01:40:55.183Z,100851.59
2024-04-18T01:43:59.991Z,100851.19
2024-04-18T01:47:04.543Z,100849.06
2024-04-18T01:50:06.604Z,100857.00
2024-04-18T01:53:11.087Z,100861.13
2024-04-18T01:56:13.162Z,100856.53
2024-04-18T01:59:20.547Z,100872.38
2024-04-18T02:02:22.653Z,100865.53
2024-04-18T02:05:27.384Z,100865.34
2024-04-18T02:08:29.331Z,100873.00
2024-04-18T02:11:34.066Z,100864.50
2024-04-18T02:14:41.309Z,100867.81
2024-04-18T02:17:43.335Z,100865.75
2024-04-18T02:20:47.894Z,100871.34
2024-04-18T02:23:49.973Z,100874.72
2024-04-18T02:26:54.470Z,100886.38
2024-04-18T02:29:59.165Z,100883.91
2024-04-18T02:33:04.192Z,100887.59
2024-04-18T02:36:09.209Z,100892.81
2024-04-18T02:39:11.177Z,100894.69
2024-04-18T02:42:17.581Z,100895.31
2024-04-18T02:45:24.949Z,100896.34
2024-04-18T02:48:29.697Z,100894.88
2024-04-18T02:51:32.092Z,100894.88
2024-04-18T02:54:36.841Z,100901.09
2024-04-18T02:57:38.907Z,100907.38
2024-04-18T03:00:46.164Z,100906.31
2024-04-18T03:03:48.431Z,100895.91
2024-04-18T03:06:53.239Z,100906.09
2024-04-18T03:09:55.274Z,100902.56
2024-04-18T03:12:59.954Z,100901.47
2024-04-18T03:16:04.844Z,100906.88
2024-04-18T03:19:14.630Z,100910.66
2024-04-18T03:22:19.574Z,100913.97
2024-04-18T03:25:21.624Z,100910.63
2024-04-18T03:28:26.250Z,100918.50
2024-04-18T03:31:33.591Z,100919.78
2024-04-18T03:34:35.707Z,100922.22
2024-04-18T03:37:40.434Z,100922.44
2024-04-18T03:40:45.236Z,100926.16
2024-04-18T03:43:49.890Z,100927.84
2024-04-18T03:46:57.053Z,100928.22
2024-04-18T03:50:01.760Z,100922.16
2024-04-18T03:53:05.118Z,100923.75
2024-04-18T03:56:09.794Z,100925.22
2024-04-18T03:59:11.695Z,100934.41
2024-04-18T04:02:19.151Z,100930.69
2024-04-18T04:05:23.676Z,100941.94
2024-04-18T04:08:25.822Z,100943.97
2024-04-18T04:11:32.903Z,100945.75
2024-04-18T04:14:35.119Z,100946.25
2024-04-18T04:17:47.860Z,100953.16
2024-04-18T04:20:49.947Z,100956.31
2024-04-18T04:23:55.137Z,100961.31
2024-04-18T04:26:57.076Z,100956.53
2024-04-18T04:30:02.173Z,100960.50
2024-04-18T04:33:09.481Z,100962.25
2024-04-18T04:36:11.409Z,100966.84
2024-04-18T04:39:16.117Z,100971.50
2024-04-18T04:42:18.213Z,100982.31
2024-04-18T04:45:22.762Z,100984.00
2024-04-18T04:48:32.148Z,100983.28
2024-04-18T04:51:35.780Z,100992.22
2024-04-18T04:54:43.485Z,100999.97
2024-04-18T04:57:48.477Z,100997.13
2024-04-18T05:00:55.072Z,100999.66
2024-04-18T05:04:00.095Z,101003.00
2024-04-18T05:07:04.841Z,101012.84
2024-04-18T05:10:08.777Z,101002.34
2024-04-18T05:13:13.651Z,101017.75
2024-04-18T05:16:16.229Z,101015.59
2024-04-18T05:19:24.143Z,101022.34
2024-04-18T05:22:28.798Z,101022.34
2024-04-18T05:25:30.830Z,101012.34
2024-04-18T05:28:42.400Z,101024.28
2024-04-18T05:31:44.347Z,101029.28
2024-04-18T05:34:51.666Z,101025.28
2024-04-18T05:37:56.801Z,101028.03
2024-04-18T05:41:01.462Z,101040.78
2024-04-18T05:44:06.032Z,101049.16
2024-04-18T05:47:11.326Z,101057.91
2024-04-18T05:50:18.536Z,101056.91
2024-04-18T05:53:23.238Z,101067.34
2024-04-18T05:56:27.935Z,101070.44
2024-04-18T05:59:32.615Z,101069.56
2024-04-18T06:02:37.310Z,101067.56
2024-04-18T06:05:44.588Z,101070.44
2024-04-18T06:08:51.331Z,101068.06
2024-04-18T06:11:56.026Z,101066.28
2024-04-18T06:15:01.230Z,101072.94
2024-04-18T06:18:06.278Z,101073.28
2024-04-18T06:21:14.045Z,101085.56
2024-04-18T06:24:18.736Z,101076.44
2024-04-18T06:27:23.464Z,101086.72
2024-04-18T06:30:28.085Z,101092.56
2024-04-18T06:33:33.259Z,101088.38
2024-04-18T06:36:40.762Z,101093.25
2024-04-18T06:39:45.988Z,101092.69
2024-04-18T06:42:50.721Z,101090.75
2024-04-18T06:45:56.548Z,101107.31
2024-04-18T06:49:01.296Z,101103.34
2024-04-18T06:52:09.111Z,101102.84
2024-04-18T06:55:13.647Z,101106.97
2024-04-18T06:58:18.325Z,101106.53
2024-04-18T07:01:22.982Z,101107.78
2024-04-18T07:04:27.743Z,101116.09
2024-04-18T07:07:35.102Z,101111.88
2024-04-18T07:10:39.650Z,101121.03
2024-04-18T07:13:44.300Z,101125.31
2024-04-18T07:16:48.793Z,101136.13
2024-04-18T07:19:53.447Z,101132.84
2024-04-18T07:23:00.623Z,101129.59
2024-04-18T07:26:05.329Z,101129.13
2024-04-18T07:29:09.834Z,101137.31
2024-04-18T07:32:14.522Z,101136.38
2024-04-18T07:35:19.214Z,101131.63
2024-04-18T07:38:26.801Z,101133.91
2024-04-18T07:41:31.453Z,101130.66
2024-04-18T07:44:36.124Z,101141.16
2024-04-18T07:47:41.661Z,101132.84
2024-04-18T07:50:46.396Z,101136.19
2024-04-18T07:53:53.528Z,101132.34
2024-04-18T07:56:58.398Z,101140.63
2024-04-18T08:00:05.792Z,101136.59
2024-04-18T08:03:13.003Z,101139.72
2024-04-18T08:09:29.973Z,101153.09
2024-04-18T08:12:40.364Z,101150.97
2024-04-18T08:18:55.520Z,101152.72
2024-04-18T08:22:01.668Z,101146.13
2024-04-18T08:25:10.580Z,101156.38
2024-04-18T08:28:15.487Z,101148.88
2024-04-18T08:31:19.969Z,101149.72
2024-04-18T08:34:25.253Z,101151.66
2024-04-18T08:37:30.328Z,101145.44
2024-04-18T08:40:37.708Z,101154.97
2024-04-18T08:43:45.255Z,101158.56
2024-04-18T08:46:53.167Z,101153.25
2024-04-18T08:49:58.493Z,101157.91
2024-04-18T08:53:04.041Z,101159.00
2024-04-18T08:56:14.141Z,101145.50
2024-04-18T08:59:18.796Z,101142.16
2024-04-18T09:02:24.297Z,101142.25
2024-04-18T09:05:28.994Z,101141.72
2024-04-18T09:08:34.866Z,101136.72
2024-04-18T09:11:42.058Z,101145.28
2024-04-18T09:14:46.924Z,101155.16
2024-04-18T09:18:03.444Z,101158.25
2024-04-18T09:21:11.199Z,101145.97
2024-04-18T09:24:15.882Z,101146.44
2024-04-18T09:27:23.505Z,101142.94
2024-04-18T09:30:28.923Z,101146.75
2024-04-18T09:33:35.848Z,101139.06
2024-04-18T09:36:43.381Z,101148.31
2024-04-18T09:39:49.872Z,101154.19
2024-04-18T09:43:02.187Z,101149.88
2024-04-18T09:46:09.714Z,101156.38
2024-04-18T09:49:15.544Z,101155.06
2024-04-18T09:52:20.957Z,101154.53
2024-04-18T09:55:28.660Z,101153.28
2024-04-18T09:58:39.527Z,101153.13
2024-04-18T10:01:45.979Z,101150.09
2024-04-18T10:04:50.851Z,101156.28
2024-04-18T10:07:57.695Z,101159.94
2024-04-18T10:11:10.028Z,101166.66
2024-04-18T10:14:18.247Z,101164.69
2024-04-18T10:17:26.766Z,101168.69
2024-04-18T10:20:31.893Z,101166.72
2024-04-18T10:23:36.614Z,101170.81
2024-04-18T10:26:41.518Z,101166.91
2024-04-18T10:29:59.003Z,101167.84
2024-04-18T10:33:03.780Z,101168.53
2024-04-18T10:36:11.296Z,101168.34
2024-04-18T10:39:32.511Z,101179.88
2024-04-18T10:42:41.200Z,101176.41
2024-04-18T10:45:49.214Z,101181.88
2024-04-18T10:48:58.397Z,101178.91
2024-04-18T10:52:05.038Z,101181.28
2024-04-18T10:55:10.227Z,101179.88
2024-04-18T10:58:16.700Z,101175.50
2024-04-18T11:01:24.140Z,101173.00
2024-04-18T11:04:29.801Z,101169.53
2024-04-18T11:07:34.360Z,101167.38
2024-04-18T11:10:41.335Z,101171.25
2024-04-18T11:13:46.069Z,101160.66
2024-04-18T11:17:01.826Z,101164.78
2024-04-18T11:20:07.205Z,101158.78
2024-04-18T11:23:15.544Z,101161.06
2024-04-18T11:26:21.917Z,101164.19
2024-04-18T11:29:29.217Z,101145.81
2024-04-18T11:32:36.940Z,101152.22
2024-04-18T11:35:41.994Z,101146.78
2024-04-18T11:38:46.670Z,101136.28
2024-04-18T11:41:51.142Z,101136.81
2024-04-18T11:44:55.862Z,101131.00
2024-04-18T11:48:03.148Z,101134.50
2024-04-18T11:51:08.149Z,101130.56
2024-04-18T11:54:12.704Z,101122.19
2024-04-18T11:57:17.579Z,101134.00
2024-04-18T12:00:22.224Z,101119.69
2024-04-18T12:03:32.083Z,101118.38
2024-04-18T12:06:36.826Z,101119.47
2024-04-18T12:09:44.427Z,101117.44
2024-04-18T12:12:49.197Z,101110.66
2024-04-18T12:15:53.962Z,101122.97
2024-04-18T12:19:01.187Z,101135.09
2024-04-18T12:22:10.317Z,101128.59
2024-04-18T12:25:14.848Z,101122.00
2024-04-18T12:28:19.390Z,101122.28
2024-04-18T12:31:24.072Z,101120.31
2024-04-18T12:34:31.545Z,101112.94
2024-04-18T12:37:36.112Z,101116.31
2024-04-18T12:40:40.724Z,101127.38
2024-04-18T12:43:46.074Z,101118.81
2024-04-18T12:46:50.682Z,101126.25
2024-04-18T12:49:57.900Z,101125.13
2024-04-18T12:53:02.546Z,101123.19
2024-04-18T12:56:07.787Z,101110.78
2024-04-18T12:59:12.538Z,101115.13
2024-04-18T13:02:18.507Z,101111.16
2024-04-18T13:05:26.158Z,101112.53
2024-04-18T13:08:30.992Z,101104.31
2024-04-18T13:11:35.728Z,101107.16
2024-04-18T13:14:40.251Z,101105.34
2024-04-18T13:17:46.562Z,101104.47
2024-04-18T13:20:53.890Z,101104.03
2024-04-18T13:23:58.512Z,101096.06
2024-04-18T13:27:03.459Z,101099.97
2024-04-18T13:30:09.149Z,101097.22
2024-04-18T13:33:14.008Z,101100.03
2024-04-18T13:36:21.415Z,101104.41
2024-04-18T13:39:26.199Z,101101.63
2024-04-18T13:42:30.800Z,101099.09
2024-04-18T13:45:36.667Z,101089.72
2024-04-18T13:48:41.546Z,101085.34
2024-04-18T13:51:48.972Z,101087.56
2024-04-18T13:54:53.573Z,101072.41
2024-04-18T13:57:59.842Z,101083.97
2024-04-18T14:01:04.715Z,101074.78
2024-04-18T14:04:09.327Z,101066.19
2024-04-18T14:07:16.725Z,101070.75
2024-04-18T14:10:22.129Z,101073.50
2024-04-18T14:13:26.912Z,101063.91
2024-04-18T14:16:47.289Z,101060.97
2024-04-18T14:19:52.035Z,101067.94
2024-04-18T14:22:59.181Z,101064.34
2024-04-18T14:26:03.927Z,101052.31
2024-04-18T14:29:08.430Z,101059.38
2024-04-18T14:32:15.925Z,101054.41
2024-04-18T14:35:20.447Z,101052.31
2024-04-18T14:38:27.877Z,101068.41
2024-04-18T14:41:32.906Z,101059.28
2024-04-18T14:44:38.152Z,101058.22
2024-04-18T14:47:42.933Z,101057.41
2024-04-18T14:50:53.749Z,101056.28
2024-04-18T14:54:01.261Z,101054.06
2024-04-18T14:57:06.558Z,101053.88
2024-04-18T15:00:12.081Z,101051.06
2024-04-18T15:03:17.248Z,101061.88
2024-04-18T15:06:22.617Z,101051.69
2024-04-18T15:09:30.164Z,101053.88
2024-04-18T15:12:35.064Z,101050.03
2024-04-18T15:15:40.128Z,101044.44
2024-04-18T15:18:45.020Z,101050.53
2024-04-18T15:21:49.943Z,101040.34
2024-04-18T15:24:57.311Z,101042.28
2024-04-18T15:28:02.141Z,101041.44
2024-04-18T15:31:07.269Z,101047.22
2024-04-18T15:34:12.473Z,101052.88
2024-04-18T15:37:17.138Z,101053.28
2024-04-18T15:40:24.700Z,101054.72
2024-04-18T15:43:29.773Z,101048.13
2024-04-18T15:46:34.607Z,101053.72
2024-04-18T15:49:39.610Z,101051.84
2024-04-18T15:52:46.761Z,101043.00
2024-04-18T15:55:54.367Z,101046.88
2024-04-18T15:59:00.762Z,101043.06
2024-04-18T16:02:09.590Z,101041.63
2024-04-18T16:05:14.236Z,101042.16
2024-04-18T16:08:19.135Z,101043.53
2024-04-18T16:11:26.569Z,101044.84
2024-04-18T16:14:31.213Z,101044.53
2024-04-18T16:17:36.009Z,101055.00
2024-04-18T16:20:40.498Z,101061.50
2024-04-18T16:23:44.995Z,101055.41
2024-04-18T16:26:52.273Z,101059.13
2024-04-18T16:29:56.946Z,101048.75
2024-04-18T16:33:01.541Z,101052.34
2024-04-18T16:36:06.971Z,101043.03
2024-04-18T16:39:12.159Z,101041.66
2024-04-18T16:42:19.720Z,101042.03
2024-04-18T16:45:24.236Z,101040.34
2024-04-18T16:48:29.026Z,101033.84
2024-04-18T16:51:34.019Z,101035.56
2024-04-18T16:54:38.722Z,101045.03
2024-04-18T16:57:46.499Z,101038.88
2024-04-18T17:00:51.593Z,101040.09
2024-04-18T17:03:56.453Z,101042.56
2024-04-18T17:07:01.400Z,101040.84
2024-04-18T17:10:07.298Z,101042.47
2024-04-18T17:13:14.601Z,101036.53
2024-04-18T17:16:19.433Z,101038.06
2024-04-18T17:19:24.401Z,101040.69
2024-04-18T17:22:29.551Z,101041.22
2024-04-18T17:25:34.104Z,101036.72
2024-04-18T17:28:41.546Z,101035.66
2024-04-18T17:31:46.359Z,101035.31
2024-04-18T17:34:51.185Z,101022.13
2024-04-18T17:37:55.818Z,101033.47
2024-04-18T17:41:03.683Z,101026.78
2024-04-18T17:44:11.432Z,101029.72
2024-04-18T17:47:16.100Z,101032.72
2024-04-18T17:50:20.746Z,101035.16
2024-04-18T17:53:25.379Z,101036.44
2024-04-18T17:56:30.175Z,101036.63
2024-04-18T17:59:37.733Z,101031.41
2024-04-18T18:02:42.464Z,101023.66
2024-04-18T18:05:47.707Z,101032.06
2024-04-18T18:08:52.338Z,101031.22
2024-04-18T18:11:57.066Z,101029.69
2024-04-18T18:15:04.575Z,101031.50
2024-04-18T18:18:10.886Z,101029.53
2024-04-18T18:21:15.650Z,101024.25
2024-04-18T18:24:20.305Z,101029.38
2024-04-18T18:27:24.950Z,101044.38
2024-04-18T18:30:29.655Z,101050.13
2024-04-18T18:33:34.345Z,101052.47
2024-04-18T18:36:36.882Z,101059.28
2024-04-18T18:39:41.902Z,101067.31
2024-04-18T18:42:47.598Z,101064.66
2024-04-18T18:45:55.378Z,101063.69
2024-04-18T18:49:00.074Z,101068.00
2024-04-18T18:52:04.866Z,101062.59
2024-04-18T18:55:09.737Z,101074.56
2024-04-18T18:58:11.822Z,101066.91
2024-04-18T19:01:19.119Z,101069.41
2024-04-18T19:04:21.448Z,101069.81
2024-04-18T19:07:26.262Z,101059.25
2024-04-18T19:10:28.559Z,101067.91
2024-04-18T19:13:33.397Z,101063.31
2024-04-18T19:16:40.656Z,101054.28
2024-04-18T19:19:42.701Z,101051.78
2024-04-18T19:22:48.199Z,101045.16
2024-04-18T19:25:52.906Z,101049.88
2024-04-18T19:28:55.089Z,101051.03
2024-04-18T19:32:02.671Z,101046.38
2024-04-18T19:35:05.488Z,101043.97
2024-04-18T19:38:10.013Z,101046.03
2024-04-18T19:41:12.306Z,101038.78
2024-04-18T19:44:16.815Z,101044.38
2024-04-18T19:47:24.316Z,101044.84
2024-04-18T19:50:28.908Z,101046.63
2024-04-18T19:53:30.973Z,101034.69
2024-04-18T19:56:35.705Z,101040.03
2024-04-18T19:59:41.591Z,101036.06
2024-04-18T20:02:49.043Z,101045.41
2024-04-18T20:05:53.557Z,101044.22
2024-04-18T20:08:55.586Z,101043.16
2024-04-18T20:12:01.551Z,101044.34
2024-04-18T20:15:04.138Z,101035.69
2024-04-18T20:18:11.540Z,101042.69
2024-04-18T20:21:16.842Z,101039.28
2024-04-18T20:24:21.554Z,101040.97
2024-04-18T20:27:26.937Z,101043.47
2024-04-18T20:30:31.591Z,101035.59
2024-04-18T20:33:36.232Z,101042.91
2024-04-18T20:36:40.877Z,101051.38
2024-04-18T20:39:43.166Z,101054.09
2024-04-18T20:42:48.630Z,101044.00
2024-04-18T20:45:58.231Z,101057.19
2024-04-18T20:49:03.401Z,101051.97
2024-04-18T20:52:08.493Z,101047.47
2024-04-18T20:55:13.182Z,101046.94
2024-04-18T20:58:15.078Z,101046.25
2024-04-18T21:01:20.050Z,101046.50
2024-04-18T21:04:24.800Z,101038.88
2024-04-18T21:07:29.501Z,101036.63
2024-04-18T21:10:31.511Z,101027.00
2024-04-18T21:13:36.191Z,101026.03
2024-04-18T21:16:38.111Z,101034.47
2024-04-18T21:19:45.381Z,101038.78
2024-04-18T21:22:49.389Z,101029.25
2024-04-18T21:25:54.064Z,101029.88
2024-04-18T21:28:57.040Z,101031.88
2024-04-18T21:32:01.719Z,101024.63
2024-04-18T21:35:06.987Z,101025.34
2024-04-18T21:38:11.661Z,101029.25
2024-04-18T21:41:16.234Z,101026.16
2024-04-18T21:44:18.328Z,101029.47
2024-04-18T21:47:22.893Z,101023.66
2024-04-18T21:50:27.578Z,101024.59
2024-04-18T21:53:32.211Z,101021.63
2024-04-18T21:56:34.117Z,101016.50
2024-04-18T21:59:38.908Z,101015.78
2024-04-18T22:02:41.083Z,101006.63
2024-04-18T22:05:48.673Z,101010.78
2024-04-18T22:08:53.493Z,101002.78
2024-04-18T22:11:58.215Z,101010.81
2024-04-18T22:15:00.523Z,101006.34
2024-04-18T22:18:06.020Z,101000.66
2024-04-18T22:21:14.021Z,101005.50
2024-04-18T22:24:18.754Z,101001.31
2024-04-18T22:27:23.315Z,100992.53
2024-04-18T22:30:25.431Z,100989.22
2024-04-18T22:33:31.101Z,100990.63
2024-04-18T22:36:38.466Z,100989.44
2024-04-18T22:39:40.464Z,100986.94
2024-04-18T22:42:45.237Z,100984.56
2024-04-18T22:45:47.285Z,100976.66
2024-04-18T22:48:52.257Z,100981.78
2024-04-18T22:51:59.526Z,100966.34
2024-04-18T22:55:04.164Z,100971.91
2024-04-18T22:58:08.066Z,100970.84
2024-04-18T23:01:12.956Z,100957.91
2024-04-18T23:04:15.203Z,100957.06
2024-04-18T23:07:22.631Z,100948.28
2024-04-18T23:10:24.574Z,100956.56
2024-04-18T23:13:29.228Z,100954.78
2024-04-18T23:16:33.920Z,100956.03
2024-04-18T23:19:38.520Z,100949.66
2024-04-18T23:22:43.256Z,100948.47
2024-04-18T23:25:47.872Z,100936.81
2024-04-18T23:28:52.531Z,100936.22
2024-04-18T23:31:54.513Z,100940.38
2024-04-18T23:34:59.586Z,100933.25
2024-04-18T23:38:04.498Z,100933.84
2024-04-18T23:41:09.069Z,100925.66
2024-04-18T23:44:11.309Z,100930.88
2024-04-18T23:47:15.905Z,100929.69
2024-04-18T23:50:48.510Z,100921.50
2024-04-18T23:53:56.407Z,100915.91
2024-04-18T23:57:00.970Z,100903.66
